createdAt,value
2023-05-16T00:00:34.206Z,1008.54
2023-05-16T00:01:34.259Z,1008.54
2023-05-16T00:02:34.365Z,1008.57
2023-05-16T00:03:34.276Z,1008.55
2023-05-16T00:04:34.276Z,1008.55
2023-05-16T00:05:34.216Z,1008.53
2023-05-16T00:06:34.140Z,1008.53
2023-05-16T00:07:34.151Z,1008.54
2023-05-16T00:08:34.120Z,1008.55
2023-05-16T00:09:34.125Z,1008.53
2023-05-16T00:10:34.128Z,1008.60
2023-05-16T00:11:34.135Z,1008.56
2023-05-16T00:12:34.085Z,1008.59
2023-05-16T00:13:34.094Z,1008.58
2023-05-16T00:14:34.066Z,1008.61
2023-05-16T00:15:34.077Z,1008.60
2023-05-16T00:16:34.055Z,1008.59
2023-05-16T00:17:34.125Z,1008.62
2023-05-16T00:18:34.051Z,1008.63
2023-05-16T00:19:34.024Z,1008.64
2023-05-16T00:20:33.992Z,1008.63
2023-05-16T00:21:34.013Z,1008.63
2023-05-16T00:22:33.996Z,1008.63
2023-05-16T00:23:34.002Z,1008.63
2023-05-16T00:24:33.946Z,1008.61
2023-05-16T00:25:33.959Z,1008.60
2023-05-16T00:26:33.959Z,1008.60
2023-05-16T00:27:33.962Z,1008.60
2023-05-16T00:28:33.913Z,1008.60
2023-05-16T00:29:33.928Z,1008.59
2023-05-16T00:30:33.906Z,1008.59
2023-05-16T00:31:33.930Z,1008.55
2023-05-16T00:32:33.940Z,1008.59
2023-05-16T00:33:33.866Z,1008.57
2023-05-16T00:34:33.950Z,1008.58
2023-05-16T00:35:33.851Z,1008.56
2023-05-16T00:36:33.847Z,1008.55
2023-05-16T00:37:33.840Z,1008.58
2023-05-16T00:38:33.827Z,1008.57
2023-05-16T00:39:33.787Z,1008.54
2023-05-16T00:40:33.819Z,1008.56
2023-05-16T00:41:33.821Z,1008.57
2023-05-16T00:42:33.796Z,1008.55
2023-05-16T00:43:33.793Z,1008.55
2023-05-16T00:44:33.771Z,1008.54
2023-05-16T00:45:33.742Z,1008.55
2023-05-16T00:46:33.771Z,1008.54
2023-05-16T00:47:33.795Z,1008.57
2023-05-16T00:48:33.758Z,1008.59
2023-05-16T00:49:33.734Z,1008.60
2023-05-16T00:50:33.749Z,1008.64
2023-05-16T00:51:33.689Z,1008.65
2023-05-16T00:52:33.744Z,1008.66
2023-05-16T00:53:33.738Z,1008.67
2023-05-16T00:54:33.705Z,1008.67
2023-05-16T00:55:33.621Z,1008.68
2023-05-16T00:56:33.646Z,1008.69
2023-05-16T00:57:33.605Z,1008.70
2023-05-16T00:58:33.618Z,1008.71
2023-05-16T00:59:33.604Z,1008.71
2023-05-16T01:00:33.627Z,1008.71
2023-05-16T01:01:33.632Z,1008.70
2023-05-16T01:02:33.648Z,1008.70
2023-05-16T01:03:33.624Z,1008.70
2023-05-16T01:04:33.568Z,1008.69
2023-05-16T01:05:33.567Z,1008.69
2023-05-16T01:06:33.543Z,1008.70
2023-05-16T01:07:33.557Z,1008.69
2023-05-16T01:08:33.511Z,1008.67
2023-05-16T01:09:33.488Z,1008.66
2023-05-16T01:10:33.499Z,1008.67
2023-05-16T01:11:33.476Z,1008.66
2023-05-16T01:12:33.460Z,1008.67
2023-05-16T01:13:33.429Z,1008.69
2023-05-16T01:14:33.454Z,1008.69
2023-05-16T01:15:33.454Z,1008.71
2023-05-16T01:16:33.474Z,1008.72
2023-05-16T01:17:33.438Z,1008.73
2023-05-16T01:18:33.425Z,1008.74
2023-05-16T01:19:33.405Z,1008.77
2023-05-16T01:20:33.377Z,1008.78
2023-05-16T01:21:33.344Z,1008.79
2023-05-16T01:22:33.388Z,1008.82
2023-05-16T01:23:33.346Z,1008.82
2023-05-16T01:24:33.360Z,1008.84
2023-05-16T01:25:33.317Z,1008.83
2023-05-16T01:26:33.373Z,1008.83
2023-05-16T01:27:33.300Z,1008.83
2023-05-16T01:28:33.305Z,1008.84
2023-05-16T01:29:33.292Z,1008.85
2023-05-16T01:30:33.286Z,1008.86
2023-05-16T01:31:33.278Z,1008.86
2023-05-16T01:32:33.266Z,1008.87
2023-05-16T01:33:33.217Z,1008.87
2023-05-16T01:34:33.231Z,1008.87
2023-05-16T01:35:33.236Z,1008.88
2023-05-16T01:36:33.202Z,1008.87
2023-05-16T01:37:33.203Z,1008.88
2023-05-16T01:38:33.188Z,1008.87
2023-05-16T01:39:33.160Z,1008.89
2023-05-16T01:40:33.182Z,1008.89
2023-05-16T01:41:33.166Z,1008.91
2023-05-16T01:42:33.165Z,1008.92
2023-05-16T01:43:33.110Z,1008.93
2023-05-16T01:44:33.136Z,1008.93
2023-05-16T01:45:33.110Z,1008.95
2023-05-16T01:46:33.112Z,1008.95
2023-05-16T01:47:33.122Z,1008.97
2023-05-16T01:48:33.084Z,1008.96
2023-05-16T01:49:33.057Z,1008.96
2023-05-16T01:50:33.069Z,1008.98
2023-05-16T01:51:33.031Z,1008.98
2023-05-16T01:52:33.039Z,1009.00
2023-05-16T01:53:33.031Z,1009.02
2023-05-16T01:54:33.081Z,1009.01
2023-05-16T01:55:33.014Z,1009.05
2023-05-16T01:56:33.012Z,1009.07
2023-05-16T01:57:32.969Z,1009.10
2023-05-16T01:58:32.992Z,1009.11
2023-05-16T01:59:32.975Z,1009.11
2023-05-16T02:00:32.962Z,1009.11
2023-05-16T02:01:33.033Z,1009.13
2023-05-16T02:02:32.997Z,1009.13
2023-05-16T02:03:32.970Z,1009.14
2023-05-16T02:04:32.919Z,1009.16
2023-05-16T02:05:32.942Z,1009.19
2023-05-16T02:06:32.905Z,1009.22
2023-05-16T02:07:32.893Z,1009.22
2023-05-16T02:08:32.871Z,1009.23
2023-05-16T02:09:32.865Z,1009.25
2023-05-16T02:10:32.870Z,1009.21
2023-05-16T02:11:32.864Z,1009.24
2023-05-16T02:12:32.835Z,1009.26
2023-05-16T02:13:32.822Z,1009.27
2023-05-16T02:14:32.813Z,1009.30
2023-05-16T02:15:32.787Z,1009.30
2023-05-16T02:16:32.834Z,1009.35
2023-05-16T02:17:32.814Z,1009.32
2023-05-16T02:18:32.780Z,1009.34
2023-05-16T02:19:32.755Z,1009.37
2023-05-16T02:20:32.751Z,1009.40
2023-05-16T02:21:32.718Z,1009.36
2023-05-16T02:22:32.741Z,1009.42
2023-05-16T02:23:32.725Z,1009.43
2023-05-16T02:24:32.758Z,1009.45
2023-05-16T02:25:32.701Z,1009.48
2023-05-16T02:26:32.686Z,1009.49
2023-05-16T02:27:32.671Z,1009.50
2023-05-16T02:28:32.666Z,1009.46
2023-05-16T02:29:32.802Z,1009.48
2023-05-16T02:30:32.664Z,1009.47
2023-05-16T02:31:32.823Z,1009.51
2023-05-16T02:32:32.660Z,1009.48
2023-05-16T02:33:32.587Z,1009.54
2023-05-16T02:34:32.603Z,1009.49
2023-05-16T02:35:32.595Z,1009.54
2023-05-16T02:36:32.607Z,1009.56
2023-05-16T02:37:32.548Z,1009.58
2023-05-16T02:38:32.566Z,1009.59
2023-05-16T02:39:32.524Z,1009.63
2023-05-16T02:40:32.549Z,1009.64
2023-05-16T02:41:32.535Z,1009.67
2023-05-16T02:42:32.567Z,1009.65
2023-05-16T02:43:32.483Z,1009.69
2023-05-16T02:44:32.494Z,1009.68
2023-05-16T02:45:32.466Z,1009.70
2023-05-16T02:46:32.506Z,1009.75
2023-05-16T02:47:32.492Z,1009.75
2023-05-16T02:48:32.453Z,1009.77
2023-05-16T02:49:32.420Z,1009.80
2023-05-16T02:50:32.443Z,1009.80
2023-05-16T02:51:32.399Z,1009.85
2023-05-16T02:52:32.412Z,1009.84
2023-05-16T02:53:32.397Z,1009.86
2023-05-16T02:54:32.392Z,1009.87
2023-05-16T02:55:32.368Z,1009.88
2023-05-16T02:56:32.374Z,1009.88
2023-05-16T02:57:32.332Z,1009.89
2023-05-16T02:58:32.347Z,1009.90
2023-05-16T02:59:32.331Z,1009.93
2023-05-16T03:00:32.337Z,1009.90
2023-05-16T03:01:32.321Z,1009.92
2023-05-16T03:02:32.348Z,1009.93
2023-05-16T03:03:32.346Z,1009.92
2023-05-16T03:04:32.256Z,1009.93
2023-05-16T03:05:32.621Z,1009.93
2023-05-16T03:06:32.248Z,1009.93
2023-05-16T03:07:32.249Z,1009.98
2023-05-16T03:08:32.225Z,1009.95
2023-05-16T03:09:32.232Z,1009.97
2023-05-16T03:10:32.200Z,1009.99
2023-05-16T03:11:32.224Z,1009.99
2023-05-16T03:12:32.177Z,1009.97
2023-05-16T03:13:32.194Z,1009.99
2023-05-16T03:14:32.157Z,1010.00
2023-05-16T03:15:32.169Z,1009.99
2023-05-16T03:16:32.144Z,1010.01
2023-05-16T03:17:32.289Z,1010.03
2023-05-16T03:18:32.179Z,1010.04
2023-05-16T03:19:32.124Z,1010.05
2023-05-16T03:20:32.098Z,1010.03
2023-05-16T03:21:32.116Z,1010.04
2023-05-16T03:22:32.082Z,1010.06
2023-05-16T03:23:32.106Z,1010.05
2023-05-16T03:24:32.132Z,1010.06
2023-05-16T03:25:32.065Z,1010.08
2023-05-16T03:26:32.027Z,1010.10
2023-05-16T03:27:32.047Z,1010.11
2023-05-16T03:28:32.016Z,1010.12
2023-05-16T03:29:32.047Z,1010.13
2023-05-16T03:30:31.996Z,1010.15
2023-05-16T03:31:32.052Z,1010.16
2023-05-16T03:32:32.039Z,1010.17
2023-05-16T03:33:31.995Z,1010.17
2023-05-16T03:34:31.941Z,1010.18
2023-05-16T03:35:31.999Z,1010.18
2023-05-16T03:36:31.935Z,1010.17
2023-05-16T03:37:31.943Z,1010.18
2023-05-16T03:38:31.903Z,1010.19
2023-05-16T03:39:31.932Z,1010.20
2023-05-16T03:40:31.883Z,1010.22
2023-05-16T03:41:31.918Z,1010.21
2023-05-16T03:42:31.875Z,1010.21
2023-05-16T03:43:31.875Z,1010.22
2023-05-16T03:44:31.843Z,1010.24
2023-05-16T03:45:31.905Z,1010.25
2023-05-16T03:46:31.892Z,1010.26
2023-05-16T03:47:32.014Z,1010.27
2023-05-16T03:48:31.819Z,1010.29
2023-05-16T03:49:31.815Z,1010.31
2023-05-16T03:50:31.785Z,1010.34
2023-05-16T03:51:31.809Z,1010.33
2023-05-16T03:52:31.806Z,1010.33
2023-05-16T03:53:31.796Z,1010.34
2023-05-16T03:54:31.773Z,1010.33
2023-05-16T03:55:31.765Z,1010.35
2023-05-16T03:56:31.732Z,1010.34
2023-05-16T03:57:31.727Z,1010.36
2023-05-16T03:58:31.759Z,1010.37
2023-05-16T03:59:31.739Z,1010.39
2023-05-16T04:00:31.676Z,1010.41
2023-05-16T04:01:31.705Z,1010.41
2023-05-16T04:02:31.754Z,1010.40
2023-05-16T04:03:31.688Z,1010.42
2023-05-16T04:04:31.644Z,1010.41
2023-05-16T04:05:31.758Z,1010.43
2023-05-16T04:06:31.604Z,1010.43
2023-05-16T04:07:31.622Z,1010.44
2023-05-16T04:08:31.592Z,1010.46
2023-05-16T04:09:31.608Z,1010.48
2023-05-16T04:10:31.569Z,1010.45
2023-05-16T04:11:31.618Z,1010.47
2023-05-16T04:12:31.556Z,1010.49
2023-05-16T04:13:31.626Z,1010.50
2023-05-16T04:14:31.566Z,1010.47
2023-05-16T04:15:31.551Z,1010.53
2023-05-16T04:16:31.554Z,1010.55
2023-05-16T04:17:31.662Z,1010.57
2023-05-16T04:18:31.547Z,1010.61
2023-05-16T04:19:31.506Z,1010.63
2023-05-16T04:20:32.963Z,1010.65
2023-05-16T04:21:31.482Z,1010.68
2023-05-16T04:22:31.448Z,1010.69
2023-05-16T04:23:31.492Z,1010.72
2023-05-16T04:24:31.426Z,1010.72
2023-05-16T04:25:31.435Z,1010.74
2023-05-16T04:26:31.410Z,1010.76
2023-05-16T04:27:31.430Z,1010.79
2023-05-16T04:28:31.387Z,1010.78
2023-05-16T04:29:31.432Z,1010.79
2023-05-16T04:30:31.558Z,1010.82
2023-05-16T04:31:31.414Z,1010.81
2023-05-16T04:32:31.360Z,1010.84
2023-05-16T04:33:31.353Z,1010.86
2023-05-16T04:34:31.329Z,1010.89
2023-05-16T04:35:31.361Z,1010.88
2023-05-16T04:36:31.315Z,1010.87
2023-05-16T04:37:31.318Z,1010.90
2023-05-16T04:38:31.282Z,1010.93
2023-05-16T04:39:31.310Z,1010.94
2023-05-16T04:40:31.279Z,1010.93
2023-05-16T04:41:31.318Z,1010.93
2023-05-16T04:42:31.258Z,1010.96
2023-05-16T04:43:31.252Z,1010.97
2023-05-16T04:44:31.214Z,1010.98
2023-05-16T04:45:31.227Z,1011.02
2023-05-16T04:46:31.275Z,1011.01
2023-05-16T04:47:31.253Z,1011.03
2023-05-16T04:48:31.200Z,1011.06
2023-05-16T04:49:31.176Z,1011.09
2023-05-16T04:50:31.185Z,1011.10
2023-05-16T04:51:31.176Z,1011.13
2023-05-16T04:52:31.168Z,1011.10
2023-05-16T04:53:31.145Z,1011.12
2023-05-16T04:54:31.143Z,1011.12
2023-05-16T04:55:31.277Z,1011.15
2023-05-16T04:56:31.114Z,1011.17
2023-05-16T04:57:31.102Z,1011.20
2023-05-16T04:58:31.101Z,1011.21
2023-05-16T04:59:31.102Z,1011.25
2023-05-16T05:00:31.074Z,1011.26
2023-05-16T05:01:31.086Z,1011.26
2023-05-16T05:02:31.109Z,1011.29
2023-05-16T05:03:31.017Z,1011.30
2023-05-16T05:04:31.069Z,1011.31
2023-05-16T05:05:31.387Z,1011.33
2023-05-16T05:06:31.013Z,1011.35
2023-05-16T05:07:30.986Z,1011.35
2023-05-16T05:08:30.996Z,1011.37
2023-05-16T05:09:30.966Z,1011.39
2023-05-16T05:10:30.974Z,1011.41
2023-05-16T05:11:30.967Z,1011.41
2023-05-16T05:12:30.953Z,1011.42
2023-05-16T05:13:30.952Z,1011.44
2023-05-16T05:14:30.937Z,1011.45
2023-05-16T05:15:30.902Z,1011.47
2023-05-16T05:16:30.900Z,1011.49
2023-05-16T05:17:30.979Z,1011.48
2023-05-16T05:18:30.936Z,1011.50
2023-05-16T05:19:30.875Z,1011.52
2023-05-16T05:20:30.866Z,1011.53
2023-05-16T05:21:30.830Z,1011.54
2023-05-16T05:22:30.845Z,1011.56
2023-05-16T05:23:30.826Z,1011.59
2023-05-16T05:24:30.839Z,1011.61
2023-05-16T05:25:30.830Z,1011.61
2023-05-16T05:26:30.811Z,1011.62
2023-05-16T05:27:30.766Z,1011.63
2023-05-16T05:28:30.779Z,1011.63
2023-05-16T05:29:30.773Z,1011.65
2023-05-16T05:30:30.767Z,1011.64
2023-05-16T05:31:30.775Z,1011.67
2023-05-16T05:32:30.770Z,1011.68
2023-05-16T05:33:30.721Z,1011.68
2023-05-16T05:34:30.722Z,1011.71
2023-05-16T05:35:30.820Z,1011.71
2023-05-16T05:36:30.710Z,1011.71
2023-05-16T05:37:30.682Z,1011.72
2023-05-16T05:38:30.684Z,1011.73
2023-05-16T05:39:30.647Z,1011.75
2023-05-16T05:40:30.667Z,1011.73
2023-05-16T05:41:30.652Z,1011.76
2023-05-16T05:42:30.634Z,1011.75
2023-05-16T05:43:30.601Z,1011.76
2023-05-16T05:44:30.610Z,1011.76
2023-05-16T05:45:30.725Z,1011.79
2023-05-16T05:46:30.644Z,1011.76
2023-05-16T05:47:30.626Z,1011.77
2023-05-16T05:48:30.575Z,1011.76
2023-05-16T05:49:30.533Z,1011.77
2023-05-16T05:50:30.551Z,1011.77
2023-05-16T05:51:30.519Z,1011.79
2023-05-16T05:52:30.528Z,1011.81
2023-05-16T05:53:30.567Z,1011.81
2023-05-16T05:54:30.548Z,1011.83
2023-05-16T05:55:30.476Z,1011.79
2023-05-16T05:56:30.491Z,1011.82
2023-05-16T05:57:30.457Z,1011.81
2023-05-16T05:58:30.466Z,1011.80
2023-05-16T05:59:30.458Z,1011.83
2023-05-16T06:00:30.484Z,1011.83
2023-05-16T06:01:30.408Z,1011.86
2023-05-16T06:02:30.488Z,1011.88
2023-05-16T06:03:30.453Z,1011.88
2023-05-16T06:04:30.448Z,1011.89
2023-05-16T06:05:30.674Z,1011.91
2023-05-16T06:06:30.446Z,1011.90
2023-05-16T06:07:30.374Z,1011.94
2023-05-16T06:08:30.432Z,1011.95
2023-05-16T06:09:30.706Z,1011.96
2023-05-16T06:10:30.331Z,1011.95
2023-05-16T06:11:30.405Z,1011.97
2023-05-16T06:12:30.355Z,1012.00
2023-05-16T06:13:30.284Z,1011.98
2023-05-16T06:14:30.309Z,1012.01
2023-05-16T06:15:30.377Z,1012.02
2023-05-16T06:16:30.343Z,1012.04
2023-05-16T06:17:30.537Z,1012.06
2023-05-16T06:18:30.311Z,1012.06
2023-05-16T06:19:30.253Z,1012.09
2023-05-16T06:20:30.385Z,1012.11
2023-05-16T06:21:30.206Z,1012.13
2023-05-16T06:22:30.314Z,1012.16
2023-05-16T06:23:30.210Z,1012.17
2023-05-16T06:24:30.186Z,1012.16
2023-05-16T06:25:30.264Z,1012.19
2023-05-16T06:26:30.200Z,1012.19
2023-05-16T06:27:30.143Z,1012.19
2023-05-16T06:28:30.161Z,1012.17
2023-05-16T06:29:30.144Z,1012.17
2023-05-16T06:30:30.129Z,1012.17
2023-05-16T06:31:30.137Z,1012.18
2023-05-16T06:32:30.136Z,1012.18
2023-05-16T06:33:30.092Z,1012.18
2023-05-16T06:34:30.117Z,1012.19
2023-05-16T06:35:30.175Z,1012.17
2023-05-16T06:36:30.065Z,1012.17
2023-05-16T06:37:30.042Z,1012.18
2023-05-16T06:38:30.052Z,1012.20
2023-05-16T06:39:30.035Z,1012.20
2023-05-16T06:40:30.044Z,1012.21
2023-05-16T06:41:30.067Z,1012.24
2023-05-16T06:42:30.034Z,1012.26
2023-05-16T06:43:29.970Z,1012.28
2023-05-16T06:44:29.988Z,1012.32
2023-05-16T06:45:30.131Z,1012.33
2023-05-16T06:46:30.029Z,1012.34
2023-05-16T06:47:30.000Z,1012.35
2023-05-16T06:48:30.216Z,1012.36
2023-05-16T06:49:29.901Z,1012.36
2023-05-16T06:50:29.929Z,1012.39
2023-05-16T06:51:29.909Z,1012.39
2023-05-16T06:52:29.918Z,1012.40
2023-05-16T06:53:29.885Z,1012.39
2023-05-16T06:54:29.888Z,1012.43
2023-05-16T06:55:30.104Z,1012.42
2023-05-16T06:56:29.858Z,1012.42
2023-05-16T06:57:29.822Z,1012.42
2023-05-16T06:58:29.834Z,1012.46
2023-05-16T06:59:29.849Z,1012.47
2023-05-16T07:00:29.836Z,1012.47
2023-05-16T07:01:29.807Z,1012.49
2023-05-16T07:02:29.902Z,1012.48
2023-05-16T07:03:29.924Z,1012.48
2023-05-16T07:04:29.779Z,1012.48
2023-05-16T07:05:29.900Z,1012.48
2023-05-16T07:06:29.762Z,1012.49
2023-05-16T07:07:29.718Z,1012.48
2023-05-16T07:08:29.749Z,1012.45
2023-05-16T07:09:29.698Z,1012.43
2023-05-16T07:10:29.763Z,1012.43
2023-05-16T07:11:29.710Z,1012.41
2023-05-16T07:12:29.691Z,1012.38
2023-05-16T07:13:29.734Z,1012.39
2023-05-16T07:14:29.746Z,1012.40
2023-05-16T07:15:29.923Z,1012.41
2023-05-16T07:16:29.655Z,1012.43
2023-05-16T07:17:29.658Z,1012.43
2023-05-16T07:18:29.692Z,1012.40
2023-05-16T07:19:29.627Z,1012.38
2023-05-16T07:20:29.616Z,1012.39
2023-05-16T07:21:29.655Z,1012.41
2023-05-16T07:22:29.621Z,1012.40
2023-05-16T07:23:29.584Z,1012.38
2023-05-16T07:24:29.558Z,1012.40
2023-05-16T07:25:29.814Z,1012.42
2023-05-16T07:26:29.611Z,1012.43
2023-05-16T07:27:29.571Z,1012.47
2023-05-16T07:28:29.560Z,1012.46
2023-05-16T07:29:29.577Z,1012.46
2023-05-16T07:30:29.530Z,1012.44
2023-05-16T07:31:29.508Z,1012.43
2023-05-16T07:32:29.601Z,1012.42
2023-05-16T07:33:29.479Z,1012.42
2023-05-16T07:34:29.536Z,1012.37
2023-05-16T07:35:29.610Z,1012.38
2023-05-16T07:36:29.463Z,1012.36
2023-05-16T07:37:31.161Z,1012.38
2023-05-16T07:38:29.414Z,1012.39
2023-05-16T07:39:29.392Z,1012.41
2023-05-16T07:40:29.413Z,1012.44
2023-05-16T07:41:29.379Z,1012.46
2023-05-16T07:42:29.390Z,1012.47
2023-05-16T07:43:30.380Z,1012.50
2023-05-16T07:44:29.354Z,1012.50
2023-05-16T07:45:29.633Z,1012.50
2023-05-16T07:46:29.385Z,1012.50
2023-05-16T07:47:29.414Z,1012.51
2023-05-16T07:48:29.313Z,1012.54
2023-05-16T07:49:29.278Z,1012.55
2023-05-16T07:50:29.304Z,1012.58
2023-05-16T07:51:29.246Z,1012.59
2023-05-16T07:52:29.278Z,1012.60
2023-05-16T07:53:29.493Z,1012.61
2023-05-16T07:54:29.275Z,1012.61
2023-05-16T07:55:29.338Z,1012.61
2023-05-16T07:56:29.221Z,1012.61
2023-05-16T07:57:29.182Z,1012.60
2023-05-16T07:58:29.201Z,1012.60
2023-05-16T07:59:29.277Z,1012.60
2023-05-16T08:00:29.188Z,1012.60
2023-05-16T08:01:29.144Z,1012.55
2023-05-16T08:02:29.225Z,1012.54
2023-05-16T08:03:29.233Z,1012.56
2023-05-16T08:04:29.129Z,1012.56
2023-05-16T08:05:29.435Z,1012.55
2023-05-16T08:06:29.128Z,1012.57
2023-05-16T08:07:29.083Z,1012.58
2023-05-16T08:08:29.098Z,1012.60
2023-05-16T08:09:29.076Z,1012.58
2023-05-16T08:10:29.097Z,1012.58
2023-05-16T08:11:29.072Z,1012.57
2023-05-16T08:12:29.087Z,1012.53
2023-05-16T08:13:29.023Z,1012.49
2023-05-16T08:14:29.033Z,1012.44
2023-05-16T08:15:29.247Z,1012.42
2023-05-16T08:16:29.101Z,1012.43
2023-05-16T08:17:29.058Z,1012.47
2023-05-16T08:18:28.988Z,1012.48
2023-05-16T08:19:29.016Z,1012.53
2023-05-16T08:20:29.009Z,1012.56
2023-05-16T08:21:28.925Z,1012.54
2023-05-16T08:22:28.942Z,1012.59
2023-05-16T08:23:28.928Z,1012.59
2023-05-16T08:24:28.948Z,1012.59
2023-05-16T08:25:29.142Z,1012.56
2023-05-16T08:26:28.919Z,1012.60
2023-05-16T08:27:29.003Z,1012.55
2023-05-16T08:28:28.877Z,1012.57
2023-05-16T08:29:28.864Z,1012.53
2023-05-16T08:30:28.863Z,1012.57
2023-05-16T08:31:29.008Z,1012.59
2023-05-16T08:32:29.836Z,1012.58
2023-05-16T08:33:28.817Z,1012.55
2023-05-16T08:34:28.829Z,1012.53
2023-05-16T08:35:28.996Z,1012.48
2023-05-16T08:36:28.793Z,1012.48
2023-05-16T08:37:28.764Z,1012.53
2023-05-16T08:38:28.795Z,1012.48
2023-05-16T08:39:28.752Z,1012.51
2023-05-16T08:40:28.755Z,1012.39
2023-05-16T08:41:28.750Z,1012.37
2023-05-16T08:42:28.727Z,1012.39
2023-05-16T08:43:28.832Z,1012.33
2023-05-16T08:44:28.710Z,1012.32
2023-05-16T08:45:28.900Z,1012.33
2023-05-16T08:46:28.783Z,1012.39
2023-05-16T08:47:28.717Z,1012.41
2023-05-16T08:48:28.717Z,1012.43
2023-05-16T08:49:28.675Z,1012.44
2023-05-16T08:50:28.642Z,1012.43
2023-05-16T08:51:28.614Z,1012.45
2023-05-16T08:52:28.629Z,1012.42
2023-05-16T08:53:28.610Z,1012.38
2023-05-16T08:54:28.660Z,1012.30
2023-05-16T08:55:28.741Z,1012.31
2023-05-16T08:56:29.278Z,1012.27
2023-05-16T08:57:28.567Z,1012.26
2023-05-16T08:58:28.564Z,1012.31
2023-05-16T08:59:28.574Z,1012.26
2023-05-16T09:00:28.915Z,1012.25
2023-05-16T09:01:28.584Z,1012.23
2023-05-16T09:02:28.581Z,1012.25
2023-05-16T09:03:28.604Z,1012.26
2023-05-16T09:04:28.544Z,1012.24
2023-05-16T09:05:28.948Z,1012.23
2023-05-16T09:06:28.491Z,1012.21
2023-05-16T09:07:28.467Z,1012.21
2023-05-16T09:08:28.442Z,1012.30
2023-05-16T09:09:28.444Z,1012.33
2023-05-16T09:10:28.419Z,1012.31
2023-05-16T09:11:28.451Z,1012.31
2023-05-16T09:12:28.396Z,1012.29
2023-05-16T09:13:28.413Z,1012.26
2023-05-16T09:14:28.374Z,1012.28
2023-05-16T09:15:28.681Z,1012.29
2023-05-16T09:16:28.426Z,1012.37
2023-05-16T09:17:38.783Z,1012.42
2023-05-16T09:18:28.343Z,1012.45
2023-05-16T09:19:28.395Z,1012.50
2023-05-16T09:20:28.321Z,1012.56
2023-05-16T09:21:28.333Z,1012.55
2023-05-16T09:22:28.315Z,1012.58
2023-05-16T09:23:28.337Z,1012.54
2023-05-16T09:24:28.261Z,1012.45
2023-05-16T09:25:30.779Z,1012.42
2023-05-16T09:26:28.336Z,1012.46
2023-05-16T09:27:28.319Z,1012.49
2023-05-16T09:28:28.214Z,1012.50
2023-05-16T09:29:28.268Z,1012.56
2023-05-16T09:30:28.212Z,1012.57
2023-05-16T09:31:28.258Z,1012.47
2023-05-16T09:32:28.192Z,1012.40
2023-05-16T09:33:28.194Z,1012.33
2023-05-16T09:34:28.171Z,1012.30
2023-05-16T09:36:28.140Z,1012.21
2023-05-16T09:37:28.223Z,1012.19
2023-05-16T09:38:28.113Z,1012.20
2023-05-16T09:39:28.165Z,1012.31
2023-05-16T09:40:28.140Z,1012.37
2023-05-16T09:41:28.121Z,1012.44
2023-05-16T09:42:28.077Z,1012.48
2023-05-16T09:43:28.092Z,1012.49
2023-05-16T09:44:28.056Z,1012.52
2023-05-16T09:45:28.304Z,1012.54
2023-05-16T09:46:28.952Z,1012.56
2023-05-16T09:47:28.154Z,1012.46
2023-05-16T09:48:28.010Z,1012.48
2023-05-16T09:49:28.023Z,1012.41
2023-05-16T09:50:28.020Z,1012.47
2023-05-16T09:51:28.004Z,1012.42
2023-05-16T09:52:27.978Z,1012.35
2023-05-16T09:53:28.004Z,1012.31
2023-05-16T09:54:27.956Z,1012.30
2023-05-16T09:55:28.166Z,1012.28
2023-05-16T09:56:28.007Z,1012.22
2023-05-16T09:57:27.938Z,1012.18
2023-05-16T09:58:27.940Z,1012.22
2023-05-16T09:59:27.965Z,1012.19
2023-05-16T10:00:27.883Z,1012.24
2023-05-16T10:01:27.912Z,1012.27
2023-05-16T10:02:27.965Z,1012.35
2023-05-16T10:03:27.940Z,1012.43
2023-05-16T10:04:27.926Z,1012.47
2023-05-16T10:05:28.205Z,1012.46
2023-05-16T10:06:27.886Z,1012.41
2023-05-16T10:07:27.826Z,1012.32
2023-05-16T10:08:27.814Z,1012.26
2023-05-16T10:09:27.826Z,1012.30
2023-05-16T10:10:27.772Z,1012.34
2023-05-16T10:11:27.812Z,1012.29
2023-05-16T10:12:27.750Z,1012.34
2023-05-16T10:13:27.746Z,1012.40
2023-05-16T10:14:27.744Z,1012.39
2023-05-16T10:15:28.035Z,1012.42
2023-05-16T10:16:27.738Z,1012.41
2023-05-16T10:17:27.815Z,1012.40
2023-05-16T10:18:27.698Z,1012.41
2023-05-16T10:19:27.777Z,1012.41
2023-05-16T10:20:27.669Z,1012.35
2023-05-16T10:21:27.691Z,1012.27
2023-05-16T10:22:27.677Z,1012.23
2023-05-16T10:23:27.692Z,1012.20
2023-05-16T10:24:27.652Z,1012.16
2023-05-16T10:25:27.990Z,1012.13
2023-05-16T10:26:27.643Z,1012.13
2023-05-16T10:27:27.619Z,1012.10
2023-05-16T10:28:27.618Z,1012.05
2023-05-16T10:29:27.646Z,1012.02
2023-05-16T10:30:27.564Z,1012.09
2023-05-16T10:31:27.641Z,1012.20
2023-05-16T10:32:27.656Z,1012.27
2023-05-16T10:33:27.630Z,1012.31
2023-05-16T10:34:27.531Z,1012.31
2023-05-16T10:35:27.876Z,1012.23
2023-05-16T10:36:27.525Z,1012.13
2023-05-16T10:37:27.525Z,1012.07
2023-05-16T10:38:27.478Z,1012.08
2023-05-16T10:39:27.571Z,1012.02
2023-05-16T10:40:27.498Z,1011.97
2023-05-16T10:41:27.481Z,1011.94
2023-05-16T10:42:27.435Z,1011.89
2023-05-16T10:43:27.483Z,1011.86
2023-05-16T10:44:27.439Z,1011.97
2023-05-16T10:45:27.668Z,1011.95
2023-05-16T10:46:27.459Z,1011.91
2023-05-16T10:47:27.417Z,1011.88
2023-05-16T10:48:27.432Z,1011.85
2023-05-16T10:49:27.396Z,1011.86
2023-05-16T10:50:27.374Z,1011.93
2023-05-16T10:51:27.374Z,1011.95
2023-05-16T10:52:27.328Z,1012.03
2023-05-16T10:53:27.403Z,1012.07
2023-05-16T10:54:27.308Z,1012.08
2023-05-16T10:55:27.524Z,1012.11
2023-05-16T10:56:27.316Z,1012.14
2023-05-16T10:57:27.341Z,1012.19
2023-05-16T10:58:27.261Z,1012.20
2023-05-16T10:59:27.303Z,1012.23
2023-05-16T11:00:27.239Z,1012.27
2023-05-16T11:01:27.316Z,1012.28
2023-05-16T11:02:27.344Z,1012.31
2023-05-16T11:03:27.309Z,1012.27
2023-05-16T11:04:27.202Z,1012.19
2023-05-16T11:05:27.456Z,1012.09
2023-05-16T11:06:27.202Z,1012.05
2023-05-16T11:07:27.199Z,1012.00
2023-05-16T11:08:27.179Z,1011.95
2023-05-16T11:09:27.221Z,1011.91
2023-05-16T11:10:28.187Z,1011.93
2023-05-16T11:11:27.251Z,1012.08
2023-05-16T11:12:27.144Z,1012.08
2023-05-16T11:13:27.141Z,1012.13
2023-05-16T11:14:27.133Z,1012.21
2023-05-16T11:15:27.373Z,1012.20
2023-05-16T11:16:27.108Z,1012.25
2023-05-16T11:17:27.281Z,1012.32
2023-05-16T11:18:27.074Z,1012.33
2023-05-16T11:19:27.064Z,1012.37
2023-05-16T11:20:27.064Z,1012.39
2023-05-16T11:21:27.061Z,1012.39
2023-05-16T11:22:27.040Z,1012.40
2023-05-16T11:23:27.056Z,1012.42
2023-05-16T11:24:27.053Z,1012.43
2023-05-16T11:25:27.192Z,1012.42
2023-05-16T11:26:26.974Z,1012.45
2023-05-16T11:27:27.056Z,1012.40
2023-05-16T11:28:27.098Z,1012.39
2023-05-16T11:29:26.972Z,1012.36
2023-05-16T11:30:26.954Z,1012.35
2023-05-16T11:31:26.999Z,1012.37
2023-05-16T11:32:26.952Z,1012.38
2023-05-16T11:33:26.941Z,1012.40
2023-05-16T11:34:26.896Z,1012.43
2023-05-16T11:35:27.134Z,1012.44
2023-05-16T11:36:26.893Z,1012.45
2023-05-16T11:37:26.909Z,1012.46
2023-05-16T11:38:26.857Z,1012.47
2023-05-16T11:39:26.885Z,1012.49
2023-05-16T11:40:26.840Z,1012.47
2023-05-16T11:41:26.868Z,1012.43
2023-05-16T11:42:26.811Z,1012.42
2023-05-16T11:43:26.830Z,1012.42
2023-05-16T11:44:26.889Z,1012.33
2023-05-16T11:45:27.047Z,1012.29
2023-05-16T11:46:26.890Z,1012.21
2023-05-16T11:47:26.889Z,1012.22
2023-05-16T11:48:35.763Z,1012.22
2023-05-16T11:49:26.753Z,1012.18
2023-05-16T11:50:26.735Z,1012.20
2023-05-16T11:51:26.735Z,1012.27
2023-05-16T11:52:26.736Z,1012.25
2023-05-16T11:53:26.735Z,1012.23
2023-05-16T11:54:26.672Z,1012.29
2023-05-16T11:55:40.168Z,1012.28
2023-05-16T11:56:26.674Z,1012.26
2023-05-16T11:57:26.680Z,1012.25
2023-05-16T11:58:26.647Z,1012.28
2023-05-16T11:59:26.665Z,1012.27
2023-05-16T12:00:26.646Z,1012.27
2023-05-16T12:01:27.338Z,1012.30
2023-05-16T12:02:26.671Z,1012.30
2023-05-16T12:03:26.741Z,1012.37
2023-05-16T12:04:26.765Z,1012.35
2023-05-16T12:05:26.942Z,1012.37
2023-05-16T12:06:26.546Z,1012.36